sensor_id;sensor_type;location;lat;lon;timestamp;P1;durP1;ratioP1;P2;durP2;ratioP2
60014;SDS011;45867;52.480;6.056;2023-02-10T00:01:47;41.63;;;17.88;;
60014;SDS011;45867;52.480;6.056;2023-02-10T00:04:13;47.58;;;17.95;;
60014;SDS011;45867;52.480;6.056;2023-02-10T00:06:38;41.08;;;19.33;;
60014;SDS011;45867;52.480;6.056;2023-02-10T00:09:05;56.00;;;18.10;;
60014;SDS011;45867;52.480;6.056;2023-02-10T00:11:32;49.67;;;19.70;;
60014;SDS011;45867;52.480;6.056;2023-02-10T00:14:16;50.53;;;17.45;;
60014;SDS011;45867;52.480;6.056;2023-02-10T00:16:43;44.25;;;16.23;;
60014;SDS011;45867;52.480;6.056;2023-02-10T00:19:09;45.75;;;17.05;;
60014;SDS011;45867;52.480;6.056;2023-02-10T00:21:34;45.05;;;16.90;;
60014;SDS011;45867;52.480;6.056;2023-02-10T00:24:00;43.72;;;16.20;;
60014;SDS011;45867;52.480;6.056;2023-02-10T00:26:27;49.35;;;16.33;;
60014;SDS011;45867;52.480;6.056;2023-02-10T00:28:52;39.97;;;16.98;;
60014;SDS011;45867;52.480;6.056;2023-02-10T00:31:18;48.15;;;17.75;;
60014;SDS011;45867;52.480;6.056;2023-02-10T00:33:47;39.58;;;15.18;;
60014;SDS011;45867;52.480;6.056;2023-02-10T00:36:13;47.67;;;16.23;;
60014;SDS011;45867;52.480;6.056;2023-02-10T00:38:40;43.75;;;16.20;;
60014;SDS011;45867;52.480;6.056;2023-02-10T00:41:16;44.60;;;16.48;;
60014;SDS011;45867;52.480;6.056;2023-02-10T00:43:46;41.53;;;16.52;;
60014;SDS011;45867;52.480;6.056;2023-02-10T00:46:12;43.28;;;16.90;;
60014;SDS011;45867;52.480;6.056;2023-02-10T00:48:39;44.05;;;17.58;;
60014;SDS011;45867;52.480;6.056;2023-02-10T00:51:05;37.22;;;16.42;;
60014;SDS011;45867;52.480;6.056;2023-02-10T00:53:31;39.05;;;15.45;;
60014;SDS011;45867;52.480;6.056;2023-02-10T00:55:57;38.03;;;15.90;;
60014;SDS011;45867;52.480;6.056;2023-02-10T00:58:22;43.63;;;16.02;;
60014;SDS011;45867;52.480;6.056;2023-02-10T01:00:48;28.58;;;12.05;;
60014;SDS011;45867;52.480;6.056;2023-02-10T01:03:14;33.95;;;12.98;;
60014;SDS011;45867;52.480;6.056;2023-02-10T01:05:40;32.33;;;13.68;;
60014;SDS011;45867;52.480;6.056;2023-02-10T01:08:06;37.78;;;13.80;;
60014;SDS011;45867;52.480;6.056;2023-02-10T01:10:32;35.33;;;13.73;;
60014;SDS011;45867;52.480;6.056;2023-02-10T01:13:00;31.27;;;14.57;;
60014;SDS011;45867;52.480;6.056;2023-02-10T01:15:26;37.97;;;14.98;;
60014;SDS011;45867;52.480;6.056;2023-02-10T01:17:52;31.05;;;13.23;;
60014;SDS011;45867;52.480;6.056;2023-02-10T01:20:18;34.85;;;12.38;;
60014;SDS011;45867;52.480;6.056;2023-02-10T01:22:44;32.65;;;12.77;;
60014;SDS011;45867;52.480;6.056;2023-02-10T01:25:12;31.48;;;12.75;;
60014;SDS011;45867;52.480;6.056;2023-02-10T01:27:38;36.20;;;12.68;;
60014;SDS011;45867;52.480;6.056;2023-02-10T01:30:04;33.03;;;12.07;;
60014;SDS011;45867;52.480;6.056;2023-02-10T01:32:30;28.67;;;12.32;;
60014;SDS011;45867;52.480;6.056;2023-02-10T01:34:56;33.55;;;12.50;;
60014;SDS011;45867;52.480;6.056;2023-02-10T01:37:22;31.58;;;12.80;;
60014;SDS011;45867;52.480;6.056;2023-02-10T01:39:47;31.10;;;12.43;;
60014;SDS011;45867;52.480;6.056;2023-02-10T01:42:16;28.90;;;12.00;;
60014;SDS011;45867;52.480;6.056;2023-02-10T01:47:07;31.42;;;9.00;;
60014;SDS011;45867;52.480;6.056;2023-02-10T01:49:35;28.42;;;11.73;;
60014;SDS011;45867;52.480;6.056;2023-02-10T01:52:09;32.95;;;11.70;;
60014;SDS011;45867;52.480;6.056;2023-02-10T01:54:39;33.33;;;10.30;;
60014;SDS011;45867;52.480;6.056;2023-02-10T01:57:08;31.85;;;11.30;;
60014;SDS011;45867;52.480;6.056;2023-02-10T01:59:35;42.53;;;12.52;;
60014;SDS011;45867;52.480;6.056;2023-02-10T02:02:02;31.35;;;11.95;;
60014;SDS011;45867;52.480;6.056;2023-02-10T02:04:35;26.52;;;11.13;;
60014;SDS011;45867;52.480;6.056;2023-02-10T02:07:04;41.85;;;12.45;;
60014;SDS011;45867;52.480;6.056;2023-02-10T02:09:30;23.27;;;8.15;;
60014;SDS011;45867;52.480;6.056;2023-02-10T02:14:49;29.48;;;10.00;;
60014;SDS011;45867;52.480;6.056;2023-02-10T02:17:38;35.28;;;11.07;;
60014;SDS011;45867;52.480;6.056;2023-02-10T02:31:09;37.65;;;10.43;;
60014;SDS011;45867;52.480;6.056;2023-02-10T02:36:37;28.08;;;10.00;;
60014;SDS011;45867;52.480;6.056;2023-02-10T02:39:06;42.37;;;10.40;;
60014;SDS011;45867;52.480;6.056;2023-02-10T02:41:32;28.77;;;9.93;;
60014;SDS011;45867;52.480;6.056;2023-02-10T02:44:00;18.90;;;8.70;;
60014;SDS011;45867;52.480;6.056;2023-02-10T02:46:45;28.20;;;9.85;;
60014;SDS011;45867;52.480;6.056;2023-02-10T02:52:08;25.42;;;10.20;;
60014;SDS011;45867;52.480;6.056;2023-02-10T02:55:41;25.55;;;7.50;;
60014;SDS011;45867;52.480;6.056;2023-02-10T02:57:57;28.67;;;9.80;;
60014;SDS011;45867;52.480;6.056;2023-02-10T03:00:31;23.92;;;9.95;;
60014;SDS011;45867;52.480;6.056;2023-02-10T03:02:59;29.35;;;9.98;;
60014;SDS011;45867;52.480;6.056;2023-02-10T03:05:28;23.52;;;9.02;;
60014;SDS011;45867;52.480;6.056;2023-02-10T03:07:56;24.43;;;9.77;;
60014;SDS011;45867;52.480;6.056;2023-02-10T03:10:22;26.88;;;10.00;;
60014;SDS011;45867;52.480;6.056;2023-02-10T03:12:47;24.88;;;9.18;;
60014;SDS011;45867;52.480;6.056;2023-02-10T03:15:13;28.15;;;9.75;;
60014;SDS011;45867;52.480;6.056;2023-02-10T03:17:39;23.83;;;9.23;;
60014;SDS011;45867;52.480;6.056;2023-02-10T03:20:05;25.85;;;10.70;;
60014;SDS011;45867;52.480;6.056;2023-02-10T03:22:30;23.83;;;8.60;;
60014;SDS011;45867;52.480;6.056;2023-02-10T03:24:56;18.45;;;9.32;;
60014;SDS011;45867;52.480;6.056;2023-02-10T03:27:21;23.20;;;9.43;;
60014;SDS011;45867;52.480;6.056;2023-02-10T03:29:46;21.90;;;9.13;;
60014;SDS011;45867;52.480;6.056;2023-02-10T03:32:14;33.97;;;9.80;;
60014;SDS011;45867;52.480;6.056;2023-02-10T03:34:40;21.02;;;9.82;;
60014;SDS011;45867;52.480;6.056;2023-02-10T03:37:05;24.50;;;8.88;;
60014;SDS011;45867;52.480;6.056;2023-02-10T03:39:31;22.95;;;9.02;;
60014;SDS011;45867;52.480;6.056;2023-02-10T03:41:56;19.27;;;7.47;;
60014;SDS011;45867;52.480;6.056;2023-02-10T03:44:21;23.92;;;9.85;;
60014;SDS011;45867;52.480;6.056;2023-02-10T03:46:47;24.83;;;9.57;;
60014;SDS011;45867;52.480;6.056;2023-02-10T03:49:12;25.75;;;9.60;;
60014;SDS011;45867;52.480;6.056;2023-02-10T03:51:38;22.95;;;10.07;;
60014;SDS011;45867;52.480;6.056;2023-02-10T03:54:03;20.58;;;8.95;;
60014;SDS011;45867;52.480;6.056;2023-02-10T03:56:28;22.10;;;8.80;;
60014;SDS011;45867;52.480;6.056;2023-02-10T03:58:54;20.05;;;9.05;;
60014;SDS011;45867;52.480;6.056;2023-02-10T04:01:19;31.20;;;10.48;;
60014;SDS011;45867;52.480;6.056;2023-02-10T04:03:45;31.63;;;9.95;;
60014;SDS011;45867;52.480;6.056;2023-02-10T04:06:11;19.98;;;7.28;;
60014;SDS011;45867;52.480;6.056;2023-02-10T04:08:37;24.02;;;10.07;;
60014;SDS011;45867;52.480;6.056;2023-02-10T04:11:04;26.63;;;10.23;;
60014;SDS011;45867;52.480;6.056;2023-02-10T04:13:30;20.85;;;9.70;;
60014;SDS011;45867;52.480;6.056;2023-02-10T04:16:06;16.80;;;7.53;;
60014;SDS011;45867;52.480;6.056;2023-02-10T04:18:33;21.30;;;9.27;;
60014;SDS011;45867;52.480;6.056;2023-02-10T04:21:00;21.95;;;10.10;;
60014;SDS011;45867;52.480;6.056;2023-02-10T04:23:28;23.20;;;9.90;;
60014;SDS011;45867;52.480;6.056;2023-02-10T04:26:13;25.00;;;10.45;;
60014;SDS011;45867;52.480;6.056;2023-02-10T04:28:45;23.42;;;9.05;;
60014;SDS011;45867;52.480;6.056;2023-02-10T04:31:10;25.70;;;10.63;;
60014;SDS011;45867;52.480;6.056;2023-02-10T04:33:36;23.88;;;9.15;;
60014;SDS011;45867;52.480;6.056;2023-02-10T04:36:01;23.00;;;9.25;;
60014;SDS011;45867;52.480;6.056;2023-02-10T04:38:30;21.35;;;8.23;;
60014;SDS011;45867;52.480;6.056;2023-02-10T04:40:55;22.05;;;10.02;;
60014;SDS011;45867;52.480;6.056;2023-02-10T04:43:21;22.90;;;8.55;;
60014;SDS011;45867;52.480;6.056;2023-02-10T04:45:46;21.25;;;10.00;;
60014;SDS011;45867;52.480;6.056;2023-02-10T04:48:12;25.48;;;9.48;;
60014;SDS011;45867;52.480;6.056;2023-02-10T04:50:39;18.90;;;8.60;;
60014;SDS011;45867;52.480;6.056;2023-02-10T04:53:05;29.02;;;10.45;;
60014;SDS011;45867;52.480;6.056;2023-02-10T04:55:30;22.42;;;10.23;;
60014;SDS011;45867;52.480;6.056;2023-02-10T04:57:55;21.80;;;10.85;;
60014;SDS011;45867;52.480;6.056;2023-02-10T05:00:21;25.27;;;11.75;;
60014;SDS011;45867;52.480;6.056;2023-02-10T05:02:46;23.75;;;11.02;;
60014;SDS011;45867;52.480;6.056;2023-02-10T05:05:12;21.65;;;11.25;;
60014;SDS011;45867;52.480;6.056;2023-02-10T05:07:37;20.42;;;10.02;;
60014;SDS011;45867;52.480;6.056;2023-02-10T05:10:03;29.80;;;11.75;;
60014;SDS011;45867;52.480;6.056;2023-02-10T05:12:29;26.65;;;10.80;;
60014;SDS011;45867;52.480;6.056;2023-02-10T05:14:54;28.40;;;12.77;;
60014;SDS011;45867;52.480;6.056;2023-02-10T05:17:20;27.35;;;11.00;;
60014;SDS011;45867;52.480;6.056;2023-02-10T05:19:45;27.98;;;11.77;;
60014;SDS011;45867;52.480;6.056;2023-02-10T05:22:11;26.42;;;12.88;;
60014;SDS011;45867;52.480;6.056;2023-02-10T05:24:36;32.28;;;12.48;;
60014;SDS011;45867;52.480;6.056;2023-02-10T05:27:01;25.80;;;12.68;;
60014;SDS011;45867;52.480;6.056;2023-02-10T05:29:27;26.10;;;11.45;;
60014;SDS011;45867;52.480;6.056;2023-02-10T05:31:52;30.77;;;13.15;;
60014;SDS011;45867;52.480;6.056;2023-02-10T05:34:18;24.77;;;11.55;;
60014;SDS011;45867;52.480;6.056;2023-02-10T05:36:43;26.85;;;12.95;;
60014;SDS011;45867;52.480;6.056;2023-02-10T05:39:09;33.45;;;12.95;;
60014;SDS011;45867;52.480;6.056;2023-02-10T05:41:55;31.98;;;13.32;;
60014;SDS011;45867;52.480;6.056;2023-02-10T05:44:22;32.55;;;12.88;;
60014;SDS011;45867;52.480;6.056;2023-02-10T05:46:49;32.42;;;13.38;;
60014;SDS011;45867;52.480;6.056;2023-02-10T05:49:15;31.17;;;14.07;;
60014;SDS011;45867;52.480;6.056;2023-02-10T05:51:41;26.90;;;11.52;;
60014;SDS011;45867;52.480;6.056;2023-02-10T05:54:06;34.90;;;13.02;;
60014;SDS011;45867;52.480;6.056;2023-02-10T05:56:32;28.83;;;12.18;;
60014;SDS011;45867;52.480;6.056;2023-02-10T05:58:57;33.63;;;13.07;;
60014;SDS011;45867;52.480;6.056;2023-02-10T06:01:23;26.92;;;12.60;;
60014;SDS011;45867;52.480;6.056;2023-02-10T06:03:48;37.78;;;15.40;;
60014;SDS011;45867;52.480;6.056;2023-02-10T06:06:14;28.88;;;13.82;;
60014;SDS011;45867;52.480;6.056;2023-02-10T06:08:39;31.40;;;13.07;;
60014;SDS011;45867;52.480;6.056;2023-02-10T06:11:04;33.88;;;13.95;;
60014;SDS011;45867;52.480;6.056;2023-02-10T06:13:30;37.72;;;15.55;;
60014;SDS011;45867;52.480;6.056;2023-02-10T06:15:56;36.17;;;14.65;;
60014;SDS011;45867;52.480;6.056;2023-02-10T06:18:21;35.65;;;14.75;;
60014;SDS011;45867;52.480;6.056;2023-02-10T06:20:47;41.65;;;14.88;;
60014;SDS011;45867;52.480;6.056;2023-02-10T06:23:13;45.03;;;16.92;;
60014;SDS011;45867;52.480;6.056;2023-02-10T06:25:39;35.65;;;15.88;;
60014;SDS011;45867;52.480;6.056;2023-02-10T06:28:05;30.15;;;11.45;;
60014;SDS011;45867;52.480;6.056;2023-02-10T06:30:30;34.17;;;12.98;;
60014;SDS011;45867;52.480;6.056;2023-02-10T06:32:56;46.45;;;15.77;;
60014;SDS011;45867;52.480;6.056;2023-02-10T06:35:21;47.25;;;16.60;;
60014;SDS011;45867;52.480;6.056;2023-02-10T06:37:46;37.88;;;15.52;;
60014;SDS011;45867;52.480;6.056;2023-02-10T06:40:12;35.10;;;12.77;;
60014;SDS011;45867;52.480;6.056;2023-02-10T06:42:38;41.35;;;15.90;;
60014;SDS011;45867;52.480;6.056;2023-02-10T06:45:04;38.70;;;15.77;;
60014;SDS011;45867;52.480;6.056;2023-02-10T06:47:31;33.15;;;15.45;;
60014;SDS011;45867;52.480;6.056;2023-02-10T06:49:56;34.65;;;13.38;;
60014;SDS011;45867;52.480;6.056;2023-02-10T06:52:22;41.10;;;14.85;;
60014;SDS011;45867;52.480;6.056;2023-02-10T06:54:49;40.85;;;15.23;;
60014;SDS011;45867;52.480;6.056;2023-02-10T06:57:15;37.95;;;16.23;;
60014;SDS011;45867;52.480;6.056;2023-02-10T06:59:40;33.65;;;14.65;;
60014;SDS011;45867;52.480;6.056;2023-02-10T07:02:07;37.90;;;16.10;;
60014;SDS011;45867;52.480;6.056;2023-02-10T07:04:34;42.92;;;15.88;;
60014;SDS011;45867;52.480;6.056;2023-02-10T07:07:00;38.08;;;17.33;;
60014;SDS011;45867;52.480;6.056;2023-02-10T07:09:26;29.35;;;12.88;;
60014;SDS011;45867;52.480;6.056;2023-02-10T07:11:51;38.42;;;15.65;;
60014;SDS011;45867;52.480;6.056;2023-02-10T07:14:17;40.03;;;18.17;;
60014;SDS011;45867;52.480;6.056;2023-02-10T07:16:42;45.75;;;19.05;;
60014;SDS011;45867;52.480;6.056;2023-02-10T07:19:08;37.40;;;16.67;;
60014;SDS011;45867;52.480;6.056;2023-02-10T07:21:33;39.63;;;16.83;;
60014;SDS011;45867;52.480;6.056;2023-02-10T07:23:59;50.35;;;18.02;;
60014;SDS011;45867;52.480;6.056;2023-02-10T07:26:26;31.95;;;13.27;;
60014;SDS011;45867;52.480;6.056;2023-02-10T07:28:52;32.47;;;14.20;;
60014;SDS011;45867;52.480;6.056;2023-02-10T07:31:18;43.15;;;16.98;;
60014;SDS011;45867;52.480;6.056;2023-02-10T07:33:43;43.35;;;16.70;;
60014;SDS011;45867;52.480;6.056;2023-02-10T07:36:09;43.80;;;15.90;;
60014;SDS011;45867;52.480;6.056;2023-02-10T07:38:34;45.95;;;18.30;;
60014;SDS011;45867;52.480;6.056;2023-02-10T07:41:01;36.22;;;15.25;;
60014;SDS011;45867;52.480;6.056;2023-02-10T07:43:26;47.25;;;17.65;;
60014;SDS011;45867;52.480;6.056;2023-02-10T07:45:52;54.88;;;17.88;;
60014;SDS011;45867;52.480;6.056;2023-02-10T07:48:17;33.13;;;13.13;;
60014;SDS011;45867;52.480;6.056;2023-02-10T07:50:43;32.90;;;15.40;;
60014;SDS011;45867;52.480;6.056;2023-02-10T07:53:09;47.80;;;18.58;;
60014;SDS011;45867;52.480;6.056;2023-02-10T07:55:40;41.60;;;16.65;;
60014;SDS011;45867;52.480;6.056;2023-02-10T07:58:06;42.95;;;17.02;;
60014;SDS011;45867;52.480;6.056;2023-02-10T08:00:32;38.63;;;14.57;;
60014;SDS011;45867;52.480;6.056;2023-02-10T08:02:58;44.17;;;17.65;;
60014;SDS011;45867;52.480;6.056;2023-02-10T08:05:23;50.65;;;18.55;;
60014;SDS011;45867;52.480;6.056;2023-02-10T08:07:49;47.28;;;19.23;;
60014;SDS011;45867;52.480;6.056;2023-02-10T08:10:14;49.50;;;17.83;;
60014;SDS011;45867;52.480;6.056;2023-02-10T08:12:40;45.13;;;19.75;;
60014;SDS011;45867;52.480;6.056;2023-02-10T08:15:07;41.22;;;18.05;;
60014;SDS011;45867;52.480;6.056;2023-02-10T08:17:32;36.05;;;15.25;;
60014;SDS011;45867;52.480;6.056;2023-02-10T08:19:58;54.45;;;18.52;;
60014;SDS011;45867;52.480;6.056;2023-02-10T08:22:24;46.88;;;16.73;;
60014;SDS011;45867;52.480;6.056;2023-02-10T08:25:08;48.58;;;19.15;;
60014;SDS011;45867;52.480;6.056;2023-02-10T08:27:33;48.40;;;19.52;;
60014;SDS011;45867;52.480;6.056;2023-02-10T08:29:59;38.83;;;15.10;;
60014;SDS011;45867;52.480;6.056;2023-02-10T08:32:24;48.95;;;18.42;;
60014;SDS011;45867;52.480;6.056;2023-02-10T08:34:50;43.00;;;18.25;;
60014;SDS011;45867;52.480;6.056;2023-02-10T08:37:17;35.88;;;16.90;;
60014;SDS011;45867;52.480;6.056;2023-02-10T08:39:43;42.30;;;18.98;;
60014;SDS011;45867;52.480;6.056;2023-02-10T08:42:09;36.88;;;16.75;;
60014;SDS011;45867;52.480;6.056;2023-02-10T08:44:35;39.70;;;15.82;;
60014;SDS011;45867;52.480;6.056;2023-02-10T08:47:00;49.28;;;19.27;;
60014;SDS011;45867;52.480;6.056;2023-02-10T08:49:27;49.80;;;17.77;;
60014;SDS011;45867;52.480;6.056;2023-02-10T08:51:56;36.45;;;14.90;;
60014;SDS011;45867;52.480;6.056;2023-02-10T08:54:21;43.15;;;16.80;;
60014;SDS011;45867;52.480;6.056;2023-02-10T08:56:47;38.72;;;17.58;;
60014;SDS011;45867;52.480;6.056;2023-02-10T08:59:13;36.90;;;16.02;;
60014;SDS011;45867;52.480;6.056;2023-02-10T09:01:38;41.92;;;14.73;;
60014;SDS011;45867;52.480;6.056;2023-02-10T09:04:04;36.80;;;14.35;;
60014;SDS011;45867;52.480;6.056;2023-02-10T09:06:31;25.42;;;11.50;;
60014;SDS011;45867;52.480;6.056;2023-02-10T09:09:04;35.72;;;14.82;;
60014;SDS011;45867;52.480;6.056;2023-02-10T09:11:30;27.90;;;12.20;;
60014;SDS011;45867;52.480;6.056;2023-02-10T09:13:56;34.40;;;14.15;;
60014;SDS011;45867;52.480;6.056;2023-02-10T09:16:22;38.30;;;12.10;;
60014;SDS011;45867;52.480;6.056;2023-02-10T09:18:49;26.38;;;10.80;;
60014;SDS011;45867;52.480;6.056;2023-02-10T09:21:14;39.65;;;12.63;;
60014;SDS011;45867;52.480;6.056;2023-02-10T09:23:40;32.20;;;10.77;;
60014;SDS011;45867;52.480;6.056;2023-02-10T09:26:05;37.58;;;13.63;;
60014;SDS011;45867;52.480;6.056;2023-02-10T09:28:31;31.30;;;12.75;;
60014;SDS011;45867;52.480;6.056;2023-02-10T09:30:56;37.40;;;12.10;;
60014;SDS011;45867;52.480;6.056;2023-02-10T09:33:24;32.58;;;12.70;;
60014;SDS011;45867;52.480;6.056;2023-02-10T09:35:50;38.28;;;10.55;;
60014;SDS011;45867;52.480;6.056;2023-02-10T09:38:15;31.73;;;11.27;;
60014;SDS011;45867;52.480;6.056;2023-02-10T09:49:11;30.85;;;12.52;;
60014;SDS011;45867;52.480;6.056;2023-02-10T09:52:00;36.00;;;10.52;;
60014;SDS011;45867;52.480;6.056;2023-02-10T09:54:36;28.88;;;10.98;;
60014;SDS011;45867;52.480;6.056;2023-02-10T09:57:03;22.35;;;10.15;;
60014;SDS011;45867;52.480;6.056;2023-02-10T09:59:34;31.95;;;10.80;;
60014;SDS011;45867;52.480;6.056;2023-02-10T10:02:04;26.67;;;10.93;;
60014;SDS011;45867;52.480;6.056;2023-02-10T10:04:38;21.58;;;8.32;;
60014;SDS011;45867;52.480;6.056;2023-02-10T10:07:11;20.90;;;10.43;;
60014;SDS011;45867;52.480;6.056;2023-02-10T10:09:46;22.15;;;8.85;;
60014;SDS011;45867;52.480;6.056;2023-02-10T10:12:22;27.95;;;10.50;;
60014;SDS011;45867;52.480;6.056;2023-02-10T10:14:48;20.98;;;9.85;;
60014;SDS011;45867;52.480;6.056;2023-02-10T10:17:33;19.55;;;9.32;;
60014;SDS011;45867;52.480;6.056;2023-02-10T10:23:13;28.38;;;9.40;;
60014;SDS011;45867;52.480;6.056;2023-02-10T10:31:23;29.48;;;11.27;;
60014;SDS011;45867;52.480;6.056;2023-02-10T10:33:53;22.23;;;8.98;;
60014;SDS011;45867;52.480;6.056;2023-02-10T10:36:32;26.73;;;10.00;;
60014;SDS011;45867;52.480;6.056;2023-02-10T10:39:01;22.20;;;8.98;;
60014;SDS011;45867;52.480;6.056;2023-02-10T10:41:49;22.35;;;8.50;;
60014;SDS011;45867;52.480;6.056;2023-02-10T10:44:16;21.73;;;8.50;;
60014;SDS011;45867;52.480;6.056;2023-02-10T10:49:35;25.17;;;10.07;;
60014;SDS011;45867;52.480;6.056;2023-02-10T10:52:01;18.70;;;8.15;;
60014;SDS011;45867;52.480;6.056;2023-02-10T10:54:39;30.38;;;9.15;;
60014;SDS011;45867;52.480;6.056;2023-02-10T10:57:05;28.25;;;9.40;;
60014;SDS011;45867;52.480;6.056;2023-02-10T10:59:36;21.00;;;8.10;;
60014;SDS011;45867;52.480;6.056;2023-02-10T11:02:11;31.67;;;10.15;;
60014;SDS011;45867;52.480;6.056;2023-02-10T11:04:42;16.95;;;7.97;;
60014;SDS011;45867;52.480;6.056;2023-02-10T11:07:10;21.33;;;8.27;;
60014;SDS011;45867;52.480;6.056;2023-02-10T11:09:41;24.98;;;8.82;;
60014;SDS011;45867;52.480;6.056;2023-02-10T11:12:20;18.00;;;8.20;;
60014;SDS011;45867;52.480;6.056;2023-02-10T11:14:52;19.60;;;8.43;;
60014;SDS011;45867;52.480;6.056;2023-02-10T11:17:27;20.27;;;8.20;;
60014;SDS011;45867;52.480;6.056;2023-02-10T11:22:31;29.15;;;7.65;;
60014;SDS011;45867;52.480;6.056;2023-02-10T11:24:57;31.83;;;8.05;;
60014;SDS011;45867;52.480;6.056;2023-02-10T11:27:25;20.77;;;7.45;;
60014;SDS011;45867;52.480;6.056;2023-02-10T11:29:52;20.83;;;7.55;;
60014;SDS011;45867;52.480;6.056;2023-02-10T11:34:51;19.83;;;7.40;;
60014;SDS011;45867;52.480;6.056;2023-02-10T11:37:21;21.15;;;6.82;;
60014;SDS011;45867;52.480;6.056;2023-02-10T11:39:49;19.80;;;7.80;;
60014;SDS011;45867;52.480;6.056;2023-02-10T11:44:52;22.65;;;7.07;;
60014;SDS011;45867;52.480;6.056;2023-02-10T11:47:37;24.58;;;7.40;;
60014;SDS011;45867;52.480;6.056;2023-02-10T11:50:03;17.38;;;6.68;;
60014;SDS011;45867;52.480;6.056;2023-02-10T11:52:43;18.95;;;8.05;;
60014;SDS011;45867;52.480;6.056;2023-02-10T11:55:11;20.27;;;8.13;;
60014;SDS011;45867;52.480;6.056;2023-02-10T12:00:32;21.60;;;8.13;;
60014;SDS011;45867;52.480;6.056;2023-02-10T12:05:39;22.70;;;7.78;;
60014;SDS011;45867;52.480;6.056;2023-02-10T12:11:08;22.48;;;6.25;;
60014;SDS011;45867;52.480;6.056;2023-02-10T12:13:41;16.20;;;5.60;;
60014;SDS011;45867;52.480;6.056;2023-02-10T12:18:58;18.38;;;5.45;;
60014;SDS011;45867;52.480;6.056;2023-02-10T12:21:39;16.98;;;6.15;;
60014;SDS011;45867;52.480;6.056;2023-02-10T12:26:54;21.95;;;5.82;;
60014;SDS011;45867;52.480;6.056;2023-02-10T12:29:46;13.20;;;5.00;;
60014;SDS011;45867;52.480;6.056;2023-02-10T12:40:44;18.48;;;5.07;;
60014;SDS011;45867;52.480;6.056;2023-02-10T12:43:39;18.58;;;5.50;;
60014;SDS011;45867;52.480;6.056;2023-02-10T12:46:29;13.88;;;5.05;;
60014;SDS011;45867;52.480;6.056;2023-02-10T12:52:20;17.73;;;5.80;;
60014;SDS011;45867;52.480;6.056;2023-02-10T12:55:01;11.02;;;5.15;;
60014;SDS011;45867;52.480;6.056;2023-02-10T13:02:45;16.02;;;4.60;;
60014;SDS011;45867;52.480;6.056;2023-02-10T13:05:17;16.15;;;4.50;;
60014;SDS011;45867;52.480;6.056;2023-02-10T13:07:53;20.13;;;6.07;;
60014;SDS011;45867;52.480;6.056;2023-02-10T13:10:38;16.13;;;5.70;;
60014;SDS011;45867;52.480;6.056;2023-02-10T13:13:16;20.60;;;6.25;;
60014;SDS011;45867;52.480;6.056;2023-02-10T13:18:20;22.60;;;6.43;;
60014;SDS011;45867;52.480;6.056;2023-02-10T13:28:48;19.90;;;6.68;;
60014;SDS011;45867;52.480;6.056;2023-02-10T13:36:52;17.35;;;6.93;;
60014;SDS011;45867;52.480;6.056;2023-02-10T13:39:23;16.55;;;6.53;;
60014;SDS011;45867;52.480;6.056;2023-02-10T13:41:51;23.58;;;6.97;;
60014;SDS011;45867;52.480;6.056;2023-02-10T13:44:32;16.00;;;6.65;;
60014;SDS011;45867;52.480;6.056;2023-02-10T13:49:33;25.85;;;7.03;;
60014;SDS011;45867;52.480;6.056;2023-02-10T13:52:20;29.63;;;7.80;;
60014;SDS011;45867;52.480;6.056;2023-02-10T13:54:56;25.25;;;7.65;;
60014;SDS011;45867;52.480;6.056;2023-02-10T13:58:25;16.45;;;6.28;;
60014;SDS011;45867;52.480;6.056;2023-02-10T14:00:42;19.23;;;7.35;;
60014;SDS011;45867;52.480;6.056;2023-02-10T14:05:35;18.48;;;6.65;;
60014;SDS011;45867;52.480;6.056;2023-02-10T14:08:13;24.25;;;7.25;;
60014;SDS011;45867;52.480;6.056;2023-02-10T14:10:40;11.63;;;5.53;;
60014;SDS011;45867;52.480;6.056;2023-02-10T14:13:21;22.95;;;5.63;;
60014;SDS011;45867;52.480;6.056;2023-02-10T14:16:04;15.13;;;4.88;;
60014;SDS011;45867;52.480;6.056;2023-02-10T14:18:36;26.60;;;6.00;;
60014;SDS011;45867;52.480;6.056;2023-02-10T14:21:08;16.75;;;6.60;;
60014;SDS011;45867;52.480;6.056;2023-02-10T14:23:36;22.08;;;6.55;;
60014;SDS011;45867;52.480;6.056;2023-02-10T14:26:13;19.23;;;6.40;;
60014;SDS011;45867;52.480;6.056;2023-02-10T14:28:46;18.27;;;6.25;;
60014;SDS011;45867;52.480;6.056;2023-02-10T14:31:17;18.73;;;6.35;;
60014;SDS011;45867;52.480;6.056;2023-02-10T14:34:15;18.88;;;6.65;;
60014;SDS011;45867;52.480;6.056;2023-02-10T14:37:19;22.27;;;6.57;;
60014;SDS011;45867;52.480;6.056;2023-02-10T14:39:56;23.17;;;6.72;;
60014;SDS011;45867;52.480;6.056;2023-02-10T14:42:24;20.48;;;6.38;;
60014;SDS011;45867;52.480;6.056;2023-02-10T14:44:53;15.82;;;6.50;;
60014;SDS011;45867;52.480;6.056;2023-02-10T14:47:22;21.65;;;6.82;;
60014;SDS011;45867;52.480;6.056;2023-02-10T14:52:29;24.83;;;6.20;;
60014;SDS011;45867;52.480;6.056;2023-02-10T14:54:58;17.38;;;6.45;;
60014;SDS011;45867;52.480;6.056;2023-02-10T14:57:25;19.15;;;6.28;;
60014;SDS011;45867;52.480;6.056;2023-02-10T14:59:53;22.63;;;6.68;;
60014;SDS011;45867;52.480;6.056;2023-02-10T15:02:20;17.92;;;6.18;;
60014;SDS011;45867;52.480;6.056;2023-02-10T15:04:49;14.90;;;6.05;;
60014;SDS011;45867;52.480;6.056;2023-02-10T15:07:20;15.60;;;5.75;;
60014;SDS011;45867;52.480;6.056;2023-02-10T15:09:52;23.80;;;7.43;;
60014;SDS011;45867;52.480;6.056;2023-02-10T15:12:21;16.30;;;6.65;;
60014;SDS011;45867;52.480;6.056;2023-02-10T15:14:50;20.63;;;7.47;;
60014;SDS011;45867;52.480;6.056;2023-02-10T15:17:29;16.48;;;6.50;;
60014;SDS011;45867;52.480;6.056;2023-02-10T15:22:44;18.02;;;7.47;;
60014;SDS011;45867;52.480;6.056;2023-02-10T15:28:00;28.90;;;6.70;;
60014;SDS011;45867;52.480;6.056;2023-02-10T15:33:15;24.10;;;8.27;;
60014;SDS011;45867;52.480;6.056;2023-02-10T15:35:51;30.95;;;9.02;;
60014;SDS011;45867;52.480;6.056;2023-02-10T15:38:18;21.13;;;9.77;;
60014;SDS011;45867;52.480;6.056;2023-02-10T15:40:54;24.33;;;9.73;;
60014;SDS011;45867;52.480;6.056;2023-02-10T15:43:22;24.45;;;9.15;;
60014;SDS011;45867;52.480;6.056;2023-02-10T15:48:51;32.20;;;10.80;;
60014;SDS011;45867;52.480;6.056;2023-02-10T15:51:22;28.55;;;11.63;;
60014;SDS011;45867;52.480;6.056;2023-02-10T15:53:52;24.48;;;10.50;;
60014;SDS011;45867;52.480;6.056;2023-02-10T15:56:21;29.40;;;12.18;;
60014;SDS011;45867;52.480;6.056;2023-02-10T15:58:48;28.95;;;12.85;;
60014;SDS011;45867;52.480;6.056;2023-02-10T16:01:13;30.05;;;11.73;;
60014;SDS011;45867;52.480;6.056;2023-02-10T16:03:39;28.15;;;13.40;;
60014;SDS011;45867;52.480;6.056;2023-02-10T16:06:04;35.10;;;13.90;;
60014;SDS011;45867;52.480;6.056;2023-02-10T16:08:30;30.30;;;12.13;;
60014;SDS011;45867;52.480;6.056;2023-02-10T16:10:57;31.70;;;13.52;;
60014;SDS011;45867;52.480;6.056;2023-02-10T16:13:22;29.77;;;12.82;;
60014;SDS011;45867;52.480;6.056;2023-02-10T16:15:48;30.13;;;14.52;;
60014;SDS011;45867;52.480;6.056;2023-02-10T16:18:18;38.47;;;16.30;;
60014;SDS011;45867;52.480;6.056;2023-02-10T16:20:46;29.45;;;14.25;;
60014;SDS011;45867;52.480;6.056;2023-02-10T16:23:12;45.03;;;17.90;;
60014;SDS011;45867;52.480;6.056;2023-02-10T16:25:39;34.10;;;16.00;;
60014;SDS011;45867;52.480;6.056;2023-02-10T16:28:05;41.95;;;16.45;;
60014;SDS011;45867;52.480;6.056;2023-02-10T16:30:32;41.33;;;19.67;;
60014;SDS011;45867;52.480;6.056;2023-02-10T16:32:58;58.55;;;25.88;;